Time;durP1;ratioP1;P1;durP2;ratioP2;P2;SDS_P1;SDS_P2;PMS_P1;PMS_P2;Temp;Humidity;BMP_temperature;BMP_pressure;BME280_temperature;BME280_humidity;BME280_pressure;Samples;Min_cycle;Max_cycle;Signal;HPM_P1;HPM_P2
2023/06/12 00:00:55;;;;;;;5.90;3.37;;;;;;;;;;4991517;28;20438;-76
2023/06/12 00:03:25;;;;;;;9.90;3.72;;;20.40;94.20;;;;;;4980321;28;20418;-76
2023/06/12 00:05:51;;;;;;;5.60;3.20;;;;;;;;;;4972630;28;20437;-76
2023/06/12 00:08:17;;;;;;;6.47;3.20;;;;;;;;;;4994306;28;20901;-77
2023/06/12 00:10:45;;;;;;;9.55;3.40;;;;;;;;;;4975338;28;20447;-77
2023/06/12 00:13:11;;;;;;;5.65;3.03;;;;;;;;;;4991891;28;20428;-76
2023/06/12 00:15:38;;;;;;;10.05;3.42;;;;;;;;;;4977404;28;20428;-76
2023/06/12 00:18:04;;;;;;;7.68;3.33;;;20.30;94.70;;;;;;5007129;28;20465;-76
2023/06/12 00:20:31;;;;;;;7.88;3.33;;;;;;;;;;5004934;28;20427;-76
2023/06/12 00:22:58;;;;;;;6.40;3.50;;;;;;;;;;4991588;28;20413;-76
2023/06/12 00:25:25;;;;;;;7.55;3.40;;;;;;;;;;4990841;28;20410;-76
2023/06/12 00:27:51;;;;;;;7.68;3.60;;;;;;;;;;4992271;28;20516;-76
2023/06/12 00:30:17;;;;;;;9.25;3.30;;;;;;;;;;4991580;28;20778;-76
2023/06/12 00:32:43;;;;;;;7.30;3.40;;;;;;;;;;4975775;28;20425;-76
2023/06/12 00:35:09;;;;;;;9.20;3.60;;;;;;;;;;4959158;28;20467;-76
2023/06/12 00:37:35;;;;;;;6.60;3.40;;;;;;;;;;4973540;28;20434;-76
2023/06/12 00:40:01;;;;;;;8.13;3.27;;;;;;;;;;4984248;28;21010;-76
2023/06/12 00:42:31;;;;;;;6.25;3.10;;;;;;;;;;4987531;28;20490;-75
2023/06/12 00:44:57;;;;;;;7.13;3.53;;;;;;;;;;4990563;28;20429;-76
2023/06/12 00:47:24;;;;;;;6.10;3.28;;;;;;;;;;4975653;28;20770;-76
2023/06/12 00:49:50;;;;;;;8.07;3.15;;;19.70;96.20;;;;;;4991026;28;20445;-76
2023/06/12 00:52:18;;;;;;;7.43;3.40;;;19.70;96.30;;;;;;4987647;28;20428;-76
2023/06/12 00:54:46;;;;;;;6.53;3.25;;;19.30;96.30;;;;;;4988256;28;20430;-77
2023/06/12 00:57:12;;;;;;;5.85;3.15;;;;;;;;;;4984527;28;20433;-77
2023/06/12 00:59:38;;;;;;;8.93;3.30;;;19.60;96.70;;;;;;5001329;28;20763;-76
2023/06/12 01:02:06;;;;;;;7.75;3.47;;;;;;;;;;4990682;28;20430;-76
2023/06/12 01:04:33;;;;;;;8.45;3.20;;;;;;;;;;4974391;28;20453;-76
2023/06/12 01:07:06;;;;;;;7.70;3.20;;;19.10;97.00;;;;;;4990191;28;20946;-76
2023/06/12 01:09:49;;;;;;;9.38;3.30;;;19.00;97.10;;;;;;4977234;28;20460;-76
2023/06/12 01:12:16;;;;;;;8.43;3.20;;;;;;;;;;4992870;28;20428;-76
2023/06/12 01:14:46;;;;;;;8.77;3.30;;;;;;;;;;4975061;28;20434;-76
2023/06/12 01:17:12;;;;;;;7.85;3.13;;;;;;;;;;4990175;28;20488;-75
2023/06/12 01:19:38;;;;;;;6.82;3.47;;;;;;;;;;4986313;28;20502;-74
2023/06/12 01:22:09;;;;;;;7.70;3.30;;;18.90;97.80;;;;;;4968831;28;20423;-76
2023/06/12 01:24:42;;;;;;;5.93;3.10;;;;;;;;;;4973676;28;20434;-76
2023/06/12 01:27:26;;;;;;;6.83;3.30;;;18.80;97.80;;;;;;5007102;28;20499;-76
2023/06/12 01:30:07;;;;;;;6.53;3.40;;;;;;;;;;4991113;28;20913;-75
2023/06/12 01:32:37;;;;;;;7.70;3.47;;;;;;;;;;4991577;28;20910;-76
2023/06/12 01:35:16;;;;;;;10.70;3.47;;;;;;;;;;4962290;28;20507;-76
2023/06/12 01:37:53;;;;;;;7.13;3.40;;;18.60;98.50;;;;;;5010871;28;20409;-76
2023/06/12 01:40:20;;;;;;;8.65;3.70;;;18.30;98.50;;;;;;4996802;28;20531;-75
2023/06/12 01:42:46;;;;;;;8.85;3.38;;;18.60;98.60;;;;;;4989234;28;20435;-76
2023/06/12 01:45:12;;;;;;;6.32;3.45;;;18.50;98.80;;;;;;4991965;28;20430;-76
2023/06/12 01:47:38;;;;;;;9.25;3.78;;;;;;;;;;4990086;28;20434;-76
2023/06/12 01:50:05;;;;;;;5.93;3.28;;;;;;;;;;4990938;28;20430;-76
2023/06/12 01:52:32;;;;;;;7.45;3.13;;;18.40;99.00;;;;;;4994681;28;20461;-76
2023/06/12 01:54:59;;;;;;;7.03;3.20;;;18.60;99.20;;;;;;4968722;28;20432;-76
2023/06/12 01:57:25;;;;;;;10.68;2.90;;;18.60;99.30;;;;;;4972836;28;20428;-76
2023/06/12 01:59:54;;;;;;;8.20;3.00;;;18.60;99.30;;;;;;4971641;28;20447;-76
2023/06/12 02:02:20;;;;;;;7.83;3.20;;;18.40;99.10;;;;;;4991205;28;20514;-76
2023/06/12 02:04:47;;;;;;;7.25;3.20;;;18.50;99.40;;;;;;4974231;28;20433;-76
2023/06/12 02:07:13;;;;;;;6.93;3.77;;;18.50;99.40;;;;;;4990192;28;20514;-77
2023/06/12 02:09:39;;;;;;;7.90;3.30;;;18.40;99.50;;;;;;4991788;28;20517;-76
2023/06/12 02:12:06;;;;;;;8.57;3.38;;;18.50;99.50;;;;;;4997005;28;20844;-75
2023/06/12 02:14:33;;;;;;;6.65;3.33;;;;;;;;;;4995047;28;20410;-75
2023/06/12 02:17:02;;;;;;;6.20;3.10;;;18.30;99.70;;;;;;4994407;28;20425;-75
2023/06/12 02:19:28;;;;;;;9.45;3.65;;;18.20;99.80;;;;;;4994959;28;20430;-75
2023/06/12 02:21:55;;;;;;;10.13;3.40;;;18.20;99.90;;;;;;4978347;28;20465;-75
2023/06/12 02:24:31;;;;;;;6.87;3.37;;;18.40;99.90;;;;;;4977781;28;20476;-76
2023/06/12 02:26:57;;;;;;;8.50;3.78;;;18.10;99.90;;;;;;5006730;28;20479;-76
2023/06/12 02:29:23;;;;;;;7.37;3.30;;;18.20;99.90;;;;;;5005766;28;20424;-75
2023/06/12 02:31:49;;;;;;;5.65;3.22;;;17.90;99.90;;;;;;4974316;28;20422;-75
2023/06/12 02:34:15;;;;;;;7.50;3.38;;;18.00;99.90;;;;;;4994582;28;20769;-75
2023/06/12 02:36:46;;;;;;;6.97;3.50;;;17.70;99.90;;;;;;4980863;28;20426;-75
2023/06/12 02:39:12;;;;;;;7.43;3.70;;;17.80;99.90;;;;;;5008779;28;20457;-75
2023/06/12 02:41:40;;;;;;;9.45;3.38;;;17.80;99.90;;;;;;4993062;28;20786;-74
2023/06/12 02:44:06;;;;;;;8.90;3.80;;;17.80;99.90;;;;;;4992601;28;20435;-76
2023/06/12 02:46:32;;;;;;;8.55;3.38;;;17.70;99.90;;;;;;4992447;28;20422;-76
2023/06/12 02:48:58;;;;;;;7.53;3.17;;;;;;;;;;4983905;28;20434;-76
2023/06/12 02:51:23;;;;;;;7.45;3.30;;;17.70;99.90;;;;;;4962209;28;20500;-75
2023/06/12 02:53:49;;;;;;;8.02;3.50;;;17.70;99.90;;;;;;4993982;28;21048;-75
2023/06/12 02:56:15;;;;;;;8.20;3.70;;;17.60;99.90;;;;;;4976181;28;20427;-75
2023/06/12 02:58:41;;;;;;;7.85;3.75;;;;;;;;;;4990375;28;20782;-75
2023/06/12 03:01:07;;;;;;;8.38;3.90;;;;;;;;;;4979428;28;20445;-75
2023/06/12 03:03:35;;;;;;;7.25;3.72;;;17.40;99.90;;;;;;4993244;28;20429;-75
2023/06/12 03:06:01;;;;;;;8.60;3.83;;;17.50;99.90;;;;;;4976413;28;20422;-74
2023/06/12 03:08:27;;;;;;;9.43;3.65;;;;;;;;;;4975554;28;20430;-74
2023/06/12 03:10:53;;;;;;;7.43;3.45;;;17.30;99.90;;;;;;4991425;28;20431;-76
2023/06/12 03:13:20;;;;;;;9.73;3.73;;;17.20;99.90;;;;;;4990561;28;20538;-75
2023/06/12 03:15:45;;;;;;;7.32;3.58;;;17.50;99.90;;;;;;4993097;28;20430;-75
2023/06/12 03:18:11;;;;;;;10.20;3.67;;;17.20;99.90;;;;;;4993683;28;20768;-75
2023/06/12 03:20:37;;;;;;;7.10;3.90;;;17.10;99.90;;;;;;4986731;28;20454;-75
2023/06/12 03:23:03;;;;;;;9.73;3.80;;;;;;;;;;4988330;28;20979;-75
2023/06/12 03:25:29;;;;;;;8.63;3.57;;;;;;;;;;4979679;28;20927;-75
2023/06/12 03:27:55;;;;;;;9.13;3.80;;;17.00;99.90;;;;;;4983580;28;20426;-75
2023/06/12 03:30:21;;;;;;;7.60;3.75;;;17.10;99.90;;;;;;4998190;28;20425;-74
2023/06/12 03:32:46;;;;;;;8.37;3.97;;;16.90;99.90;;;;;;4984497;28;20997;-75
2023/06/12 03:35:13;;;;;;;7.67;3.77;;;17.00;99.90;;;;;;4976446;28;20430;-75
2023/06/12 03:37:39;;;;;;;8.67;3.80;;;;;;;;;;4992061;28;20468;-75
2023/06/12 03:40:05;;;;;;;10.82;4.05;;;17.10;99.90;;;;;;4991770;28;20438;-75
2023/06/12 03:42:31;;;;;;;6.72;3.80;;;;;;;;;;4977687;28;20407;-75
2023/06/12 03:44:57;;;;;;;7.35;3.60;;;;;;;;;;4989289;28;20436;-76
2023/06/12 03:47:23;;;;;;;7.80;3.67;;;17.00;99.90;;;;;;4979954;28;20502;-76
2023/06/12 03:49:48;;;;;;;11.00;4.00;;;17.00;99.90;;;;;;4991620;28;20789;-75
2023/06/12 03:52:15;;;;;;;12.15;3.90;;;;;;;;;;4992392;28;20426;-75
2023/06/12 03:54:40;;;;;;;9.40;3.75;;;16.80;99.90;;;;;;5004029;28;20428;-76
2023/06/12 03:57:06;;;;;;;9.63;3.85;;;;;;;;;;5002799;28;20620;-75
2023/06/12 03:59:33;;;;;;;8.10;3.67;;;;;;;;;;5004343;28;20417;-74
2023/06/12 04:01:59;;;;;;;9.20;4.10;;;17.00;99.90;;;;;;4983861;28;20437;-75
2023/06/12 04:04:25;;;;;;;7.97;4.00;;;16.90;99.90;;;;;;4985754;28;20424;-75
2023/06/12 04:06:52;;;;;;;8.32;3.97;;;16.90;99.90;;;;;;5007859;28;20426;-76
2023/06/12 04:09:19;;;;;;;7.10;4.00;;;;;;;;;;4992094;28;20422;-76
2023/06/12 04:11:46;;;;;;;10.37;4.10;;;16.90;99.90;;;;;;4992754;28;20411;-75
2023/06/12 04:14:12;;;;;;;7.13;3.92;;;17.00;99.90;;;;;;4989048;28;20778;-76
2023/06/12 04:16:38;;;;;;;9.07;4.20;;;16.90;99.90;;;;;;4984968;28;20480;-76
2023/06/12 04:19:04;;;;;;;7.30;3.90;;;;;;;;;;4985965;28;20432;-75
2023/06/12 04:21:32;;;;;;;18.50;4.70;;;16.70;99.90;;;;;;4995270;28;20457;-76
2023/06/12 04:24:03;;;;;;;10.75;4.18;;;16.60;99.90;;;;;;4968613;28;20418;-76
2023/06/12 04:26:34;;;;;;;9.50;4.07;;;;;;;;;;4991024;28;20430;-77
2023/06/12 04:29:02;;;;;;;9.20;4.28;;;16.70;99.90;;;;;;4989457;28;20439;-76
2023/06/12 04:31:29;;;;;;;8.87;4.03;;;16.70;99.90;;;;;;4993386;28;20436;-77
2023/06/12 04:33:55;;;;;;;7.68;4.15;;;;;;;;;;4974822;28;20437;-76
2023/06/12 04:36:22;;;;;;;14.45;4.65;;;16.80;99.90;;;;;;4975042;28;20454;-75
2023/06/12 04:38:51;;;;;;;8.53;4.07;;;16.40;99.90;;;;;;4979869;28;20428;-76
2023/06/12 04:41:24;;;;;;;8.23;3.85;;;16.70;99.90;;;;;;4995416;28;20504;-76
2023/06/12 04:43:51;;;;;;;7.10;4.10;;;;;;;;;;4965637;28;20420;-76
2023/06/12 04:46:20;;;;;;;8.10;4.47;;;16.40;99.90;;;;;;5005803;28;20426;-76
2023/06/12 04:48:47;;;;;;;9.18;4.22;;;16.70;99.90;;;;;;4992540;28;20472;-77
2023/06/12 04:51:14;;;;;;;10.32;4.30;;;;;;;;;;4972072;28;20434;-77
2023/06/12 04:53:43;;;;;;;8.40;4.50;;;16.60;99.90;;;;;;4992865;28;20434;-75
2023/06/12 04:56:09;;;;;;;9.05;4.50;;;16.30;99.90;;;;;;4973537;28;20446;-76
2023/06/12 04:58:40;;;;;;;9.55;4.45;;;16.70;99.90;;;;;;5002947;28;20509;-76
2023/06/12 05:01:06;;;;;;;8.40;4.20;;;16.50;99.90;;;;;;4991447;28;20436;-76
2023/06/12 05:03:34;;;;;;;9.87;3.97;;;16.70;99.90;;;;;;4992838;28;20546;-76
2023/06/12 05:06:00;;;;;;;7.90;4.17;;;16.80;99.90;;;;;;4996308;28;20426;-76
2023/06/12 05:08:26;;;;;;;7.30;4.45;;;16.70;99.90;;;;;;4992460;28;20430;-76
2023/06/12 05:10:52;;;;;;;9.80;4.20;;;17.10;99.90;;;;;;4965038;28;20423;-76
2023/06/12 05:13:17;;;;;;;13.20;4.90;;;17.00;99.90;;;;;;4991153;28;20424;-76
2023/06/12 05:15:44;;;;;;;10.67;4.60;;;;;;;;;;4991822;28;20430;-76
2023/06/12 05:18:09;;;;;;;7.43;4.00;;;17.10;99.90;;;;;;4974215;28;20910;-76
2023/06/12 05:20:35;;;;;;;8.60;4.25;;;17.20;99.90;;;;;;4976840;28;20528;-74
2023/06/12 05:23:01;;;;;;;10.30;4.63;;;;;;;;;;4991012;28;20433;-76
2023/06/12 05:25:27;;;;;;;13.98;4.57;;;17.40;99.90;;;;;;4970323;28;20427;-76
2023/06/12 05:27:53;;;;;;;9.32;4.10;;;17.40;99.90;;;;;;4978335;28;20426;-77
2023/06/12 05:30:18;;;;;;;15.00;4.60;;;17.60;99.90;;;;;;4992626;28;21085;-76
2023/06/12 05:32:45;;;;;;;10.37;4.27;;;;;;;;;;4980829;28;20420;-76
2023/06/12 05:35:11;;;;;;;7.68;4.30;;;17.70;99.90;;;;;;4965839;28;20430;-76
2023/06/12 05:37:37;;;;;;;11.43;4.60;;;;;;;;;;5001588;28;20438;-76
2023/06/12 05:40:05;;;;;;;9.00;4.18;;;;;;;;;;4977827;28;20440;-75
2023/06/12 05:42:31;;;;;;;9.07;4.35;;;;;;;;;;5006731;28;21006;-77
2023/06/12 05:44:57;;;;;;;13.90;4.20;;;17.70;99.90;;;;;;4996011;28;20458;-76
2023/06/12 05:47:24;;;;;;;8.20;4.25;;;;;;;;;;4962505;28;20410;-77
2023/06/12 05:49:50;;;;;;;9.20;4.00;;;18.60;99.90;;;;;;4995841;28;20812;-76
2023/06/12 05:52:16;;;;;;;7.87;4.30;;;;;;;;;;4991192;28;20485;-76
2023/06/12 05:54:41;;;;;;;7.55;4.32;;;18.10;99.90;;;;;;4994125;28;20491;-76
2023/06/12 05:57:07;;;;;;;9.95;4.43;;;18.40;99.90;;;;;;4993380;28;20421;-76
2023/06/12 05:59:33;;;;;;;8.23;4.40;;;18.60;99.90;;;;;;4992586;28;20430;-77
2023/06/12 06:01:58;;;;;;;8.27;4.50;;;18.80;99.90;;;;;;4992588;28;20426;-77
2023/06/12 06:04:25;;;;;;;9.20;4.30;;;18.80;99.90;;;;;;4992441;28;20421;-77
2023/06/12 06:06:53;;;;;;;10.98;4.32;;;18.80;99.90;;;;;;4978296;28;20426;-76
2023/06/12 06:09:18;;;;;;;11.73;5.00;;;19.00;99.90;;;;;;4988084;28;20434;-75
2023/06/12 06:11:44;;;;;;;9.33;4.40;;;19.00;99.90;;;;;;4972631;28;20429;-76
2023/06/12 06:14:10;;;;;;;12.97;5.00;;;19.00;99.90;;;;;;4993959;28;20533;-76
2023/06/12 06:16:36;;;;;;;7.95;4.05;;;19.30;99.90;;;;;;4989371;28;20424;-76
2023/06/12 06:19:01;;;;;;;9.05;4.45;;;19.40;99.90;;;;;;4997621;28;20428;-75
2023/06/12 06:21:28;;;;;;;8.05;4.35;;;19.60;99.90;;;;;;4986693;28;20444;-76
2023/06/12 06:23:54;;;;;;;12.00;4.30;;;19.70;99.90;;;;;;5002698;28;20416;-76
2023/06/12 06:26:20;;;;;;;10.13;4.85;;;19.80;99.90;;;;;;4976066;28;20933;-73
2023/06/12 06:28:47;;;;;;;11.33;4.60;;;20.00;99.90;;;;;;4975583;28;20434;-75
2023/06/12 06:31:14;;;;;;;9.27;4.60;;;19.90;99.90;;;;;;4988019;28;20426;-75
2023/06/12 06:33:39;;;;;;;8.07;4.63;;;19.90;99.90;;;;;;4989391;28;21966;-74
2023/06/12 06:36:06;;;;;;;8.47;4.30;;;;;;;;;;4989360;28;20517;-75
2023/06/12 06:38:32;;;;;;;11.63;4.70;;;20.40;99.90;;;;;;4999920;28;20489;-75
2023/06/12 06:40:59;;;;;;;8.32;4.80;;;20.40;99.90;;;;;;4994504;28;20478;-76
2023/06/12 06:43:25;;;;;;;13.30;4.80;;;20.30;99.90;;;;;;4958870;28;20425;-76
2023/06/12 06:45:50;;;;;;;9.23;4.60;;;20.10;99.90;;;;;;4977465;28;20486;-76
2023/06/12 06:48:16;;;;;;;14.23;5.00;;;20.40;99.90;;;;;;4976383;28;21012;-75
2023/06/12 06:50:42;;;;;;;15.57;4.97;;;20.40;99.90;;;;;;4993470;28;20509;-76
2023/06/12 06:53:08;;;;;;;9.20;4.65;;;20.60;99.90;;;;;;4994433;28;20909;-76
2023/06/12 06:55:34;;;;;;;9.97;5.00;;;20.80;99.90;;;;;;4990155;28;20571;-75
2023/06/12 06:58:00;;;;;;;11.73;5.13;;;;;;;;;;4979239;28;20422;-75
2023/06/12 07:00:27;;;;;;;9.53;4.83;;;21.30;99.90;;;;;;4997972;28;20536;-75
2023/06/12 07:02:53;;;;;;;12.60;4.53;;;21.10;99.90;;;;;;4988429;28;20450;-75
2023/06/12 07:05:20;;;;;;;10.73;4.80;;;21.20;99.90;;;;;;4993022;28;20918;-75
2023/06/12 07:07:47;;;;;;;9.23;4.82;;;21.40;99.90;;;;;;4995883;28;20426;-75
2023/06/12 07:10:13;;;;;;;9.35;4.47;;;21.50;99.90;;;;;;4992127;28;20502;-76
2023/06/12 07:12:39;;;;;;;8.57;4.43;;;21.70;99.90;;;;;;4988989;28;20791;-75
2023/06/12 07:15:05;;;;;;;12.53;4.50;;;21.60;99.90;;;;;;4984578;28;20470;-75
2023/06/12 07:17:31;;;;;;;9.55;5.03;;;21.80;99.90;;;;;;4995848;28;20780;-75
2023/06/12 07:19:57;;;;;;;8.98;5.10;;;21.90;99.90;;;;;;4995592;28;20786;-75
2023/06/12 07:22:23;;;;;;;10.43;5.40;;;21.80;99.90;;;;;;4994366;28;20426;-75
2023/06/12 07:24:48;;;;;;;10.90;5.00;;;22.00;99.90;;;;;;5002716;28;20445;-75
2023/06/12 07:27:14;;;;;;;9.85;4.95;;;22.20;99.90;;;;;;4998434;28;20422;-75
2023/06/12 07:29:40;;;;;;;9.43;5.10;;;21.90;99.90;;;;;;4993033;28;20448;-75
2023/06/12 07:32:06;;;;;;;13.03;5.13;;;22.50;99.90;;;;;;4993759;28;20454;-76
2023/06/12 07:34:32;;;;;;;8.03;4.50;;;22.40;99.90;;;;;;4983713;28;20496;-75
2023/06/12 07:37:00;;;;;;;7.80;4.50;;;22.70;99.90;;;;;;4979774;28;20426;-76
2023/06/12 07:39:26;;;;;;;9.55;4.80;;;22.70;99.90;;;;;;4980405;28;20423;-73
2023/06/12 07:41:52;;;;;;;8.98;4.82;;;23.10;99.90;;;;;;4990356;28;20438;-74
2023/06/12 07:44:18;;;;;;;9.32;4.72;;;22.80;99.90;;;;;;4984531;28;20489;-75
2023/06/12 07:46:43;;;;;;;12.27;5.03;;;23.00;99.90;;;;;;4989812;28;20424;-75
2023/06/12 07:49:09;;;;;;;11.85;4.57;;;22.90;99.90;;;;;;4988820;28;21009;-74
2023/06/12 07:51:36;;;;;;;7.80;4.80;;;23.00;99.90;;;;;;5000769;28;20790;-74
2023/06/12 07:54:03;;;;;;;9.88;5.03;;;23.30;99.90;;;;;;4987219;28;20905;-74
2023/06/12 07:56:30;;;;;;;8.02;4.68;;;23.50;99.90;;;;;;4989733;28;20418;-74
2023/06/12 07:58:55;;;;;;;8.77;4.88;;;23.20;99.90;;;;;;4985783;28;21000;-74
2023/06/12 08:01:22;;;;;;;8.77;4.75;;;23.70;99.90;;;;;;4991001;28;20434;-75
2023/06/12 08:03:48;;;;;;;10.07;4.80;;;23.90;99.90;;;;;;4992711;28;20505;-75
2023/06/12 08:06:15;;;;;;;10.67;5.00;;;24.00;99.90;;;;;;4957042;28;20517;-75
2023/06/12 08:08:42;;;;;;;9.60;4.85;;;24.10;99.90;;;;;;4945412;28;20412;-74
2023/06/12 08:11:09;;;;;;;10.20;4.90;;;23.90;99.90;;;;;;4996613;28;20426;-73
2023/06/12 08:13:34;;;;;;;13.23;5.03;;;24.10;99.90;;;;;;4991128;28;20451;-74
2023/06/12 08:16:01;;;;;;;9.48;4.75;;;24.20;99.90;;;;;;4950740;28;20899;-74
2023/06/12 08:18:27;;;;;;;8.77;4.82;;;24.20;99.90;;;;;;4982492;28;20513;-75
2023/06/12 08:20:52;;;;;;;8.20;4.50;;;24.00;99.90;;;;;;4985366;28;20525;-75
2023/06/12 08:23:18;;;;;;;9.40;4.93;;;24.10;99.90;;;;;;4982185;28;20422;-75
2023/06/12 08:25:44;;;;;;;9.63;4.60;;;24.40;99.90;;;;;;4967856;28;20447;-73
2023/06/12 08:28:10;;;;;;;9.77;4.82;;;24.20;99.90;;;;;;4968346;28;20848;-76
2023/06/12 08:30:36;;;;;;;11.73;4.80;;;24.40;99.90;;;;;;4966875;28;20949;-75
2023/06/12 08:33:03;;;;;;;8.47;4.73;;;24.70;99.90;;;;;;4981388;28;20464;-77
2023/06/12 08:35:29;;;;;;;9.68;5.15;;;24.40;99.90;;;;;;4984363;28;20438;-78
2023/06/12 08:37:56;;;;;;;8.07;4.53;;;24.60;99.90;;;;;;4966301;28;20435;-76
2023/06/12 08:40:22;;;;;;;11.05;4.93;;;24.90;99.90;;;;;;4983802;28;20439;-76
2023/06/12 08:42:51;;;;;;;8.23;4.60;;;25.00;99.90;;;;;;4993216;28;20419;-75
2023/06/12 08:45:20;;;;;;;8.98;4.70;;;24.60;99.90;;;;;;4970121;28;20949;-76
2023/06/12 08:47:48;;;;;;;7.82;4.10;;;25.00;99.90;;;;;;4985887;28;20524;-77
2023/06/12 08:50:17;;;;;;;9.55;4.63;;;25.60;99.90;;;;;;5004410;28;20493;-76
2023/06/12 08:52:44;;;;;;;10.68;4.55;;;25.30;99.70;;;;;;4995824;28;20434;-76
2023/06/12 08:55:14;;;;;;;10.75;4.63;;;25.10;99.90;;;;;;4983834;28;20426;-76
2023/06/12 08:57:41;;;;;;;6.93;4.53;;;25.70;99.90;;;;;;4970776;28;20441;-76
2023/06/12 09:00:12;;;;;;;8.50;4.60;;;26.10;99.90;;;;;;4962376;28;21004;-81
2023/06/12 09:02:49;;;;;;;8.02;4.90;;;26.10;99.60;;;;;;4979127;28;20439;-77
2023/06/12 09:05:25;;;;;;;7.25;4.50;;;25.90;99.90;;;;;;4966630;28;20439;-77
2023/06/12 09:07:53;;;;;;;13.25;4.70;;;26.30;99.30;;;;;;4979613;28;20518;-76
2023/06/12 09:10:19;;;;;;;8.45;4.85;;;26.40;98.70;;;;;;4997250;28;20910;-76
2023/06/12 09:12:45;;;;;;;10.45;4.70;;;26.20;97.90;;;;;;4981573;28;20418;-76
2023/06/12 09:15:18;;;;;;;8.27;4.40;;;25.90;96.80;;;;;;4988561;28;20585;-76
2023/06/12 09:17:48;;;;;;;9.82;4.95;;;26.20;97.00;;;;;;4978854;28;20497;-76
2023/06/12 09:20:34;;;;;;;7.78;4.47;;;26.30;97.10;;;;;;4980249;28;20451;-76
2023/06/12 09:23:00;;;;;;;9.73;4.73;;;26.50;96.80;;;;;;4993343;28;20426;-75
2023/06/12 09:25:37;;;;;;;7.63;4.00;;;26.70;96.00;;;;;;4965274;28;20433;-76
2023/06/12 09:28:04;;;;;;;7.90;4.43;;;27.00;96.00;;;;;;4986954;28;20422;-75
2023/06/12 09:30:33;;;;;;;7.00;4.32;;;27.10;96.60;;;;;;5005561;28;20489;-77
2023/06/12 09:33:00;;;;;;;7.78;4.68;;;26.80;95.00;;;;;;4984595;28;20430;-76
2023/06/12 09:35:26;;;;;;;6.40;4.00;;;26.70;95.20;;;;;;4997092;28;20423;-75
2023/06/12 09:37:52;;;;;;;7.10;4.63;;;26.90;93.60;;;;;;4974687;28;20434;-76
2023/06/12 09:40:18;;;;;;;8.47;4.57;;;26.20;94.40;;;;;;4972251;28;20426;-77
2023/06/12 09:42:45;;;;;;;6.80;4.10;;;26.70;95.00;;;;;;4981324;28;20423;-77
2023/06/12 09:45:14;;;;;;;7.32;4.60;;;27.10;95.00;;;;;;4969499;28;20522;-77
2023/06/12 09:47:46;;;;;;;7.65;4.35;;;27.10;94.00;;;;;;4982192;28;20492;-78
2023/06/12 09:50:23;;;;;;;10.05;4.60;;;27.40;94.10;;;;;;4988557;28;20426;-77
2023/06/12 09:52:50;;;;;;;6.70;4.53;;;27.80;94.00;;;;;;4978953;28;20426;-79
2023/06/12 09:55:17;;;;;;;6.03;4.35;;;27.50;94.50;;;;;;4973731;28;20518;-80
2023/06/12 09:57:48;;;;;;;9.68;5.03;;;27.70;94.30;;;;;;4987549;28;20437;-78
2023/06/12 10:00:16;;;;;;;8.07;4.35;;;27.90;93.70;;;;;;4989858;28;20805;-78
2023/06/12 10:02:52;;;;;;;5.40;4.07;;;27.60;93.40;;;;;;4967607;28;20474;-76
2023/06/12 10:05:28;;;;;;;7.55;4.10;;;28.00;92.80;;;;;;4986637;28;20496;-77
2023/06/12 10:07:59;;;;;;;5.83;4.43;;;27.90;92.90;;;;;;4984046;28;20431;-77
2023/06/12 10:10:25;;;;;;;8.63;4.45;;;27.90;92.80;;;;;;4982047;28;20472;-75
2023/06/12 10:12:52;;;;;;;7.25;4.20;;;28.10;92.00;;;;;;4988212;28;20526;-77
2023/06/12 10:15:19;;;;;;;7.40;3.80;;;28.50;92.80;;;;;;4987170;28;20541;-77
2023/06/12 10:17:46;;;;;;;9.77;4.20;;;28.40;91.80;;;;;;4956784;28;20437;-78
2023/06/12 10:20:12;;;;;;;7.85;4.40;;;28.60;91.00;;;;;;4954505;28;20466;-78
2023/06/12 10:22:41;;;;;;;8.13;4.47;;;28.40;90.90;;;;;;4967597;28;20506;-76
2023/06/12 10:25:08;;;;;;;5.68;3.85;;;28.60;90.20;;;;;;4984175;28;20573;-78
2023/06/12 10:27:37;;;;;;;8.82;4.50;;;28.70;90.30;;;;;;4983120;28;20441;-78
2023/06/12 10:30:04;;;;;;;6.38;4.32;;;28.10;90.60;;;;;;4986162;28;20441;-77
2023/06/12 10:32:32;;;;;;;6.30;4.10;;;28.40;90.80;;;;;;4999710;28;20502;-78
2023/06/12 10:34:58;;;;;;;8.93;4.20;;;28.70;91.00;;;;;;4975652;28;20422;-77
2023/06/12 10:37:25;;;;;;;7.10;4.10;;;29.30;90.70;;;;;;4993768;28;20918;-77
2023/06/12 10:40:18;;;;;;;5.97;4.00;;;29.40;90.20;;;;;;4997199;28;20432;-77
2023/06/12 10:42:53;;;;;;;7.70;4.18;;;29.60;88.70;;;;;;4991900;28;20437;-78
2023/06/12 10:45:21;;;;;;;5.90;4.20;;;29.00;88.20;;;;;;4989917;28;20418;-78
2023/06/12 10:48:05;;;;;;;15.63;5.20;;;28.60;89.10;;;;;;4997202;28;20461;-79
2023/06/12 10:50:32;;;;;;;11.35;4.60;;;29.30;90.20;;;;;;4975525;28;20422;-79
2023/06/12 10:53:03;;;;;;;9.82;4.30;;;29.70;90.50;;;;;;4991872;28;20506;-78
2023/06/12 10:55:29;;;;;;;11.10;4.70;;;29.30;89.40;;;;;;5006250;28;20416;-80
2023/06/12 10:58:06;;;;;;;7.68;4.80;;;29.20;88.40;;;;;;4973167;28;20429;-78
2023/06/12 11:00:37;;;;;;;8.68;4.70;;;28.70;90.20;;;;;;4991996;28;20436;-79
2023/06/12 11:03:10;;;;;;;9.03;4.47;;;28.60;86.90;;;;;;4992276;28;20929;-78
2023/06/12 11:05:36;;;;;;;9.65;4.60;;;29.10;88.40;;;;;;4991879;28;20771;-78
2023/06/12 11:08:03;;;;;;;9.38;5.07;;;29.50;89.00;;;;;;4986329;28;20454;-79
2023/06/12 11:10:31;;;;;;;6.82;4.55;;;29.80;89.00;;;;;;4964696;28;20423;-79
2023/06/12 11:12:57;;;;;;;7.55;4.78;;;30.30;88.40;;;;;;4960179;28;20466;-78
2023/06/12 11:15:23;;;;;;;8.60;4.78;;;30.10;85.50;;;;;;4991960;28;20435;-79
2023/06/12 11:17:50;;;;;;;8.30;4.97;;;30.40;85.50;;;;;;4974886;28;20433;-79
2023/06/12 11:20:18;;;;;;;8.30;4.85;;;30.30;86.80;;;;;;4974418;28;20521;-79
2023/06/12 11:22:46;;;;;;;11.48;5.40;;;30.20;87.40;;;;;;4986209;28;20422;-78
2023/06/12 11:25:12;;;;;;;10.00;4.97;;;30.30;83.40;;;;;;4976403;28;20414;-79
2023/06/12 11:27:38;;;;;;;7.28;4.78;;;30.50;85.10;;;;;;4972247;28;20414;-79
2023/06/12 11:30:08;;;;;;;15.53;6.27;;;30.30;88.50;;;;;;4992717;28;20453;-79
2023/06/12 11:32:35;;;;;;;18.02;5.60;;;29.30;84.50;;;;;;4989343;28;21001;-79
2023/06/12 11:35:02;;;;;;;9.90;5.40;;;30.10;83.50;;;;;;4990153;28;20525;-80
2023/06/12 11:37:28;;;;;;;9.27;5.22;;;29.80;82.70;;;;;;4994085;28;20425;-79
2023/06/12 11:40:07;;;;;;;9.48;5.03;;;30.30;82.00;;;;;;4992969;28;20445;-79
2023/06/12 11:42:33;;;;;;;5.70;4.55;;;30.20;80.60;;;;;;4971059;28;20418;-80
2023/06/12 11:45:00;;;;;;;8.80;5.13;;;30.10;79.00;;;;;;4965770;28;20427;-80
2023/06/12 11:47:26;;;;;;;8.48;4.65;;;30.40;76.80;;;;;;4972598;28;20427;-80
2023/06/12 11:49:52;;;;;;;6.18;5.03;;;31.00;75.60;;;;;;4971834;28;20435;-80
2023/06/12 11:52:21;;;;;;;7.60;4.63;;;30.40;75.90;;;;;;4982144;28;20503;-79
2023/06/12 11:55:00;;;;;;;6.63;4.57;;;30.90;76.40;;;;;;5007747;28;20418;-80
2023/06/12 11:57:26;;;;;;;10.45;5.00;;;30.80;74.20;;;;;;4988915;28;20458;-80
2023/06/12 11:59:56;;;;;;;8.48;5.05;;;30.50;75.20;;;;;;4995932;28;20776;-79
2023/06/12 12:02:33;;;;;;;6.93;4.97;;;30.40;75.20;;;;;;4981985;28;20932;-79
2023/06/12 12:05:03;;;;;;;8.02;5.00;;;30.40;77.10;;;;;;5007382;28;20432;-78
2023/06/12 12:07:30;;;;;;;8.73;5.18;;;30.60;76.40;;;;;;4987898;28;20419;-79
2023/06/12 12:10:07;;;;;;;7.10;5.18;;;30.80;76.10;;;;;;4983908;28;20430;-79
2023/06/12 12:12:40;;;;;;;7.82;5.55;;;30.40;75.90;;;;;;4987502;28;20480;-79
2023/06/12 12:15:07;;;;;;;7.00;5.30;;;30.50;76.50;;;;;;4986175;28;20425;-80
2023/06/12 12:17:33;;;;;;;8.02;5.68;;;30.30;75.30;;;;;;4966155;28;20470;-80
2023/06/12 12:20:04;;;;;;;8.52;5.90;;;30.70;76.50;;;;;;4990617;28;20462;-74
2023/06/12 12:22:30;;;;;;;6.37;5.57;;;31.30;76.00;;;;;;4981264;28;20462;-78
2023/06/12 12:24:58;;;;;;;7.47;5.25;;;31.40;75.60;;;;;;4999727;28;20464;-80
2023/06/12 12:27:27;;;;;;;8.55;5.63;;;31.40;75.60;;;;;;4982766;28;20418;-79
2023/06/12 12:29:52;;;;;;;7.20;5.60;;;31.60;76.80;;;;;;4998441;28;20420;-79
2023/06/12 12:32:18;;;;;;;9.40;5.30;;;29.90;76.60;;;;;;4978009;28;20416;-80
2023/06/12 12:34:44;;;;;;;8.02;5.57;;;31.60;77.10;;;;;;4997039;28;20427;-80
2023/06/12 12:37:09;;;;;;;7.83;5.80;;;31.80;76.20;;;;;;4967139;28;20925;-80
2023/06/12 12:39:35;;;;;;;9.17;5.83;;;30.50;76.00;;;;;;4987600;28;20437;-80
2023/06/12 12:42:00;;;;;;;7.97;5.85;;;30.90;77.50;;;;;;4986731;28;20434;-80
2023/06/12 12:44:26;;;;;;;9.57;5.87;;;30.50;77.50;;;;;;4989329;28;20422;-80
2023/06/12 12:46:52;;;;;;;7.45;5.43;;;30.40;77.00;;;;;;4992943;28;20977;-79
2023/06/12 12:49:18;;;;;;;9.93;6.03;;;30.50;77.20;;;;;;4974500;28;20441;-79
2023/06/12 12:51:43;;;;;;;10.30;6.10;;;30.40;76.60;;;;;;4975394;28;20871;-79
2023/06/12 12:54:09;;;;;;;7.23;5.83;;;30.90;76.10;;;;;;4996246;28;20430;-79
2023/06/12 12:56:35;;;;;;;8.07;5.80;;;31.20;75.80;;;;;;4977571;28;20492;-78
2023/06/12 12:59:00;;;;;;;7.82;6.10;;;31.70;75.70;;;;;;4979351;28;20426;-80
2023/06/12 13:01:26;;;;;;;8.40;6.27;;;30.50;74.20;;;;;;4977336;28;20433;-80
2023/06/12 13:03:55;;;;;;;9.05;6.20;;;31.00;75.80;;;;;;5003185;28;20410;-80
2023/06/12 13:06:20;;;;;;;8.13;6.05;;;31.00;75.40;;;;;;4990658;28;20894;-80